createdAt,value
2019-01-11T00:01:44.849Z,100802.84
2019-01-11T00:04:14.279Z,100798.34
2019-01-11T00:06:43.648Z,100805.31
2019-01-11T00:09:13.006Z,100798.45
2019-01-11T00:11:42.518Z,100798.61
2019-01-11T00:14:11.877Z,100796.63
2019-01-11T00:16:41.502Z,100788.88
2019-01-11T00:19:10.856Z,100791.06
2019-01-11T00:21:40.230Z,100786.69
2019-01-11T00:24:09.635Z,100785.33
2019-01-11T00:26:39.254Z,100782.44
2019-01-11T00:29:08.928Z,100780.45
2019-01-11T00:31:38.272Z,100782.96
2019-01-11T00:34:07.671Z,100773.81
2019-01-11T00:36:37.067Z,100775.69
2019-01-11T00:39:07.936Z,100775.17
2019-01-11T00:41:37.317Z,100773.20
2019-01-11T00:44:06.672Z,100770.30
2019-01-11T00:46:36.112Z,100770.50
2019-01-11T00:49:06.216Z,100762.41
2019-01-11T00:51:35.583Z,100758.06
2019-01-11T00:54:06.072Z,100757.66
2019-01-11T00:56:35.453Z,100765.33
2019-01-11T00:59:05.688Z,100762.87
2019-01-11T01:01:35.062Z,100764.38
2019-01-11T01:04:04.846Z,100766.36
2019-01-11T01:06:34.281Z,100759.55
2019-01-11T01:09:05.873Z,100758.81
2019-01-11T01:11:35.326Z,100750.41
2019-01-11T01:14:04.841Z,100752.64
2019-01-11T01:16:34.279Z,100757.81
2019-01-11T01:19:03.718Z,100757.61
2019-01-11T01:21:33.333Z,100759.48
2019-01-11T01:24:03.111Z,100752.58
2019-01-11T01:26:32.796Z,100754.39
2019-01-11T01:29:02.426Z,100751.31
2019-01-11T01:31:31.773Z,100760.83
2019-01-11T01:34:01.161Z,100758.36
2019-01-11T01:36:30.530Z,100755.13
2019-01-11T01:38:59.907Z,100753.51
2019-01-11T01:41:29.273Z,100745.19
2019-01-11T01:43:58.953Z,100741.67
2019-01-11T01:46:28.579Z,100750.69
2019-01-11T01:48:57.966Z,100741.63
2019-01-11T01:51:27.397Z,100742.77
2019-01-11T01:53:57.725Z,100748.98
2019-01-11T01:56:27.095Z,100741.39
2019-01-11T01:58:56.738Z,100741.59
2019-01-11T02:01:26.112Z,100738.75
2019-01-11T02:03:55.732Z,100746.06
2019-01-11T02:06:25.090Z,100735.45
2019-01-11T02:08:54.471Z,100738.63
2019-01-11T02:11:23.832Z,100737.45
2019-01-11T02:13:53.214Z,100737.48
2019-01-11T02:16:22.587Z,100729.50
2019-01-11T02:18:51.955Z,100726.73
2019-01-11T02:21:21.326Z,100722.03
2019-01-11T02:23:50.705Z,100724.36
2019-01-11T02:26:20.078Z,100721.32
2019-01-11T02:28:49.436Z,100717.41
2019-01-11T02:31:19.112Z,100710.66
2019-01-11T02:33:49.710Z,100702.95
2019-01-11T02:36:19.158Z,100701.76
2019-01-11T02:38:48.545Z,100693.50
2019-01-11T02:41:17.922Z,100700.05
2019-01-11T02:43:47.303Z,100697.13
2019-01-11T02:46:16.677Z,100690.86
2019-01-11T02:48:46.049Z,100690.80
2019-01-11T02:51:15.738Z,100685.86
2019-01-11T02:53:45.177Z,100685.97
2019-01-11T02:56:14.560Z,100684.25
2019-01-11T02:58:43.927Z,100678.91
2019-01-11T03:01:13.470Z,100677.60
2019-01-11T03:03:44.222Z,100669.44
2019-01-11T03:06:13.819Z,100676.28
2019-01-11T03:08:43.193Z,100667.98
2019-01-11T03:11:12.594Z,100667.67
2019-01-11T03:13:41.952Z,100663.80
2019-01-11T03:16:11.568Z,100666.62
2019-01-11T03:18:40.937Z,100657.83
2019-01-11T03:21:10.312Z,100652.86
2019-01-11T03:23:39.683Z,100647.52
2019-01-11T03:26:09.059Z,100653.43
2019-01-11T03:28:38.429Z,100647.72
2019-01-11T03:31:09.468Z,100648.57
2019-01-11T03:33:38.836Z,100646.35
2019-01-11T03:36:08.224Z,100644.58
2019-01-11T03:38:37.859Z,100635.35
2019-01-11T03:41:07.295Z,100637.48
2019-01-11T03:43:36.610Z,100633.82
2019-01-11T03:46:06.295Z,100633.19
2019-01-11T03:48:35.668Z,100632.61
2019-01-11T03:51:05.047Z,100636.64
2019-01-11T03:53:34.654Z,100631.45
2019-01-11T03:56:04.030Z,100624.78
2019-01-11T03:58:33.396Z,100621.97
2019-01-11T04:01:02.789Z,100621.55
2019-01-11T04:03:32.154Z,100617.33
2019-01-11T04:06:01.809Z,100616.95
2019-01-11T04:08:31.179Z,100611.64
2019-01-11T04:11:00.553Z,100615.67
2019-01-11T04:13:30.606Z,100614.52
2019-01-11T04:16:02.918Z,100609.77
2019-01-11T04:18:33.239Z,100604.06
2019-01-11T04:21:02.623Z,100607.34
2019-01-11T04:23:32.720Z,100607.72
2019-01-11T04:26:02.179Z,100604.04
2019-01-11T04:28:31.551Z,100605.23
2019-01-11T04:31:00.942Z,100602.02
2019-01-11T04:33:30.374Z,100597.15
2019-01-11T04:35:59.754Z,100590.06
2019-01-11T04:38:29.444Z,100596.34
2019-01-11T04:40:58.836Z,100596.86
2019-01-11T04:43:28.229Z,100598.97
2019-01-11T04:45:57.774Z,100590.48
2019-01-11T04:48:27.150Z,100593.03
2019-01-11T04:50:59.700Z,100592.23
2019-01-11T04:53:29.963Z,100587.19
2019-01-11T04:55:59.657Z,100585.97
2019-01-11T04:58:29.276Z,100576.84
2019-01-11T05:00:58.653Z,100581.49
2019-01-11T05:03:28.048Z,100574.58
2019-01-11T05:05:57.420Z,100573.67
2019-01-11T05:08:26.802Z,100575.16
2019-01-11T05:10:56.175Z,100565.67
2019-01-11T05:13:37.012Z,100564.16
2019-01-11T05:16:06.537Z,100556.89
2019-01-11T05:18:35.993Z,100561.82
2019-01-11T05:21:05.838Z,100562.67
2019-01-11T05:23:35.235Z,100564.52
2019-01-11T05:26:06.240Z,100565.51
2019-01-11T05:28:35.609Z,100557.61
2019-01-11T05:31:05.054Z,100555.14
2019-01-11T05:33:34.682Z,100560.78
2019-01-11T05:36:04.085Z,100552.00
2019-01-11T05:38:33.450Z,100560.21
2019-01-11T05:41:02.825Z,100556.92
2019-01-11T05:43:32.206Z,100552.83
2019-01-11T05:46:01.576Z,100546.94
2019-01-11T05:48:30.944Z,100553.87
2019-01-11T05:51:00.373Z,100559.67
2019-01-11T05:53:29.752Z,100553.09
2019-01-11T05:56:00.767Z,100558.55
2019-01-11T05:58:31.304Z,100554.84
2019-01-11T06:01:00.930Z,100552.23
2019-01-11T06:03:30.379Z,100561.78
2019-01-11T06:05:59.764Z,100562.77
2019-01-11T06:08:29.214Z,100558.15
2019-01-11T06:10:58.658Z,100555.42
2019-01-11T06:13:28.041Z,100557.14
2019-01-11T06:15:57.482Z,100549.19
2019-01-11T06:18:26.880Z,100554.51
2019-01-11T06:20:56.576Z,100557.19
2019-01-11T06:23:25.972Z,100555.34
2019-01-11T06:25:58.334Z,100564.22
2019-01-11T06:28:27.716Z,100567.99
2019-01-11T06:30:57.093Z,100570.39
2019-01-11T06:33:27.956Z,100568.84
2019-01-11T06:35:57.333Z,100573.48
2019-01-11T06:38:26.725Z,100579.36
2019-01-11T06:40:56.120Z,100583.33
2019-01-11T06:43:25.488Z,100581.54
2019-01-11T06:45:54.882Z,100576.77
2019-01-11T06:48:26.174Z,100574.91
2019-01-11T06:50:55.551Z,100582.18
2019-01-11T06:53:25.032Z,100585.36
2019-01-11T06:55:54.423Z,100590.58
2019-01-11T06:58:23.791Z,100597.67
2019-01-11T07:00:53.187Z,100593.61
2019-01-11T07:03:28.623Z,100598.58
2019-01-11T07:05:58.001Z,100593.44
2019-01-11T07:08:27.452Z,100582.80
2019-01-11T07:10:57.084Z,100584.16
2019-01-11T07:13:26.502Z,100581.02
2019-01-11T07:15:55.972Z,100574.41
2019-01-11T07:18:25.587Z,100568.52
2019-01-11T07:20:55.037Z,100563.39
2019-01-11T07:23:24.404Z,100562.97
2019-01-11T07:25:54.062Z,100568.12
2019-01-11T07:28:23.443Z,100579.59
2019-01-11T07:30:54.448Z,100577.55
2019-01-11T07:33:23.848Z,100573.30
2019-01-11T07:35:54.922Z,100578.77
2019-01-11T07:38:24.293Z,100582.13
2019-01-11T07:40:53.729Z,100580.86
2019-01-11T07:43:23.129Z,100584.08
2019-01-11T07:45:52.519Z,100594.09
2019-01-11T07:48:21.898Z,100607.45
2019-01-11T07:50:51.606Z,100609.50
2019-01-11T07:53:20.980Z,100602.94
2019-01-11T07:55:50.426Z,100606.38
2019-01-11T07:58:19.823Z,100604.16
2019-01-11T08:00:49.586Z,100599.87
2019-01-11T08:03:18.966Z,100607.37
2019-01-11T08:05:48.361Z,100607.56
2019-01-11T08:08:17.732Z,100612.33
2019-01-11T08:10:47.120Z,100619.73
2019-01-11T08:13:16.490Z,100611.42
2019-01-11T08:15:45.876Z,100610.43
2019-01-11T08:18:15.266Z,100613.39
2019-01-11T08:20:44.652Z,100614.30
2019-01-11T08:23:14.026Z,100610.37
2019-01-11T08:25:43.406Z,100622.64
2019-01-11T08:28:14.080Z,100628.53
2019-01-11T08:30:43.433Z,100618.88
2019-01-11T08:33:18.517Z,100615.14
2019-01-11T08:35:43.954Z,100618.00
2019-01-11T08:38:14.176Z,100616.88
2019-01-11T08:40:43.804Z,100620.09
2019-01-11T08:43:15.155Z,100620.89
2019-01-11T08:45:44.568Z,100622.20
2019-01-11T08:48:15.485Z,100623.48
2019-01-11T08:50:46.762Z,100620.48
2019-01-11T08:53:16.139Z,100620.89
2019-01-11T08:55:45.887Z,100623.42
2019-01-11T08:58:15.268Z,100613.83
2019-01-11T09:00:45.495Z,100613.18
2019-01-11T09:03:15.166Z,100620.06
2019-01-11T09:05:44.545Z,100617.70
2019-01-11T09:08:13.926Z,100617.70
2019-01-11T09:10:43.336Z,100622.88
2019-01-11T09:13:12.717Z,100612.97
2019-01-11T09:15:42.100Z,100622.45
2019-01-11T09:18:13.400Z,100623.02
2019-01-11T09:20:42.851Z,100618.75
2019-01-11T09:23:12.242Z,100623.99
2019-01-11T09:25:41.621Z,100622.41
2019-01-11T09:28:11.380Z,100627.61
2019-01-11T09:30:40.749Z,100642.84
2019-01-11T09:33:10.147Z,100645.66
2019-01-11T09:35:39.519Z,100640.73
2019-01-11T09:38:08.945Z,100653.34
2019-01-11T09:40:38.607Z,100650.75
2019-01-11T09:43:08.022Z,100654.31
2019-01-11T09:45:37.822Z,100658.73
2019-01-11T09:48:07.238Z,100656.95
2019-01-11T09:50:36.620Z,100650.87
2019-01-11T09:53:05.976Z,100656.31
2019-01-11T09:55:35.353Z,100649.23
2019-01-11T09:58:06.380Z,100652.39
2019-01-11T10:00:35.808Z,100647.91
2019-01-11T10:03:17.772Z,100649.69
2019-01-11T10:05:37.777Z,100655.09
2019-01-11T10:08:07.150Z,100643.45
2019-01-11T10:10:36.530Z,100649.55
2019-01-11T10:13:05.916Z,100647.55
2019-01-11T10:15:35.476Z,100647.14
2019-01-11T10:18:05.169Z,100651.14
2019-01-11T10:20:34.561Z,100645.97
2019-01-11T10:23:03.947Z,100654.08
2019-01-11T10:25:33.386Z,100647.91
2019-01-11T10:28:02.781Z,100638.49
2019-01-11T10:30:32.160Z,100643.76
2019-01-11T10:33:01.568Z,100639.45
2019-01-11T10:35:31.300Z,100643.94
2019-01-11T10:38:00.740Z,100638.93
2019-01-11T10:40:30.569Z,100633.11
2019-01-11T10:43:00.613Z,100625.64
2019-01-11T10:45:30.373Z,100631.09
2019-01-11T10:47:59.829Z,100613.49
2019-01-11T10:50:31.723Z,100610.36
2019-01-11T10:53:01.132Z,100612.72
2019-01-11T10:55:30.523Z,100602.77
2019-01-11T10:57:59.922Z,100609.10
2019-01-11T11:00:30.188Z,100606.86
2019-01-11T11:02:59.903Z,100602.33
2019-01-11T11:05:29.372Z,100607.63
2019-01-11T11:07:58.840Z,100609.51
2019-01-11T11:10:29.761Z,100615.80
2019-01-11T11:12:59.162Z,100618.25
2019-01-11T11:15:28.552Z,100618.70
2019-01-11T11:17:57.935Z,100620.38
2019-01-11T11:20:27.323Z,100619.05
2019-01-11T11:22:57.265Z,100616.97
2019-01-11T11:25:26.976Z,100617.05
2019-01-11T11:27:56.335Z,100616.49
2019-01-11T11:30:41.627Z,100606.20
2019-01-11T11:33:12.910Z,100606.18
2019-01-11T11:35:42.675Z,100602.45
2019-01-11T11:38:12.296Z,100598.50
2019-01-11T11:40:43.301Z,100601.27
2019-01-11T11:43:12.677Z,100608.43
2019-01-11T11:45:42.796Z,100604.28
2019-01-11T11:48:12.171Z,100606.03
2019-01-11T11:50:41.828Z,100602.64
2019-01-11T11:53:11.452Z,100603.82
2019-01-11T11:55:40.840Z,100596.80
2019-01-11T11:58:10.471Z,100587.86
2019-01-11T12:00:39.954Z,100592.23
2019-01-11T12:03:10.331Z,100579.32
2019-01-11T12:05:39.692Z,100578.55
2019-01-11T12:08:10.731Z,100567.54
2019-01-11T12:10:40.093Z,100578.96
2019-01-11T12:13:09.509Z,100577.02
2019-01-11T12:15:38.899Z,100574.58
2019-01-11T12:18:08.680Z,100567.31
2019-01-11T12:20:38.811Z,100559.71
2019-01-11T12:23:08.252Z,100558.91
2019-01-11T12:25:37.729Z,100555.66
2019-01-11T12:28:08.335Z,100549.55
2019-01-11T12:30:37.759Z,100547.45
2019-01-11T12:33:09.354Z,100546.82
2019-01-11T12:35:38.348Z,100544.04
2019-01-11T12:38:13.518Z,100534.11
2019-01-11T12:40:39.102Z,100539.37
2019-01-11T12:43:08.469Z,100543.02
2019-01-11T12:45:37.915Z,100548.69
2019-01-11T12:48:07.285Z,100546.95
2019-01-11T12:50:36.652Z,100543.94
2019-01-11T12:53:06.067Z,100539.11
2019-01-11T12:55:35.470Z,100528.58
2019-01-11T12:58:04.909Z,100536.97
2019-01-11T13:00:35.696Z,100540.76
2019-01-11T13:03:05.114Z,100526.77
2019-01-11T13:05:34.499Z,100523.93
2019-01-11T13:08:03.875Z,100517.55
2019-01-11T13:10:33.318Z,100516.95
2019-01-11T13:13:02.720Z,100517.87
2019-01-11T13:15:32.097Z,100519.41
2019-01-11T13:18:01.768Z,100515.14
2019-01-11T13:20:31.144Z,100522.58
2019-01-11T13:23:00.532Z,100517.55
2019-01-11T13:25:32.207Z,100514.31
2019-01-11T13:28:01.031Z,100514.28
2019-01-11T13:30:32.566Z,100513.96
2019-01-11T13:33:02.222Z,100517.20
2019-01-11T13:35:31.604Z,100516.13
2019-01-11T13:38:01.511Z,100516.42
2019-01-11T13:40:30.961Z,100521.06
2019-01-11T13:43:00.359Z,100523.72
2019-01-11T13:45:30.275Z,100521.33
2019-01-11T13:47:59.727Z,100524.16
2019-01-11T13:50:35.241Z,100522.37
2019-01-11T13:53:06.421Z,100522.95
2019-01-11T13:55:35.819Z,100520.70
2019-01-11T13:58:05.686Z,100516.89
2019-01-11T14:00:35.429Z,100518.07
2019-01-11T14:03:05.234Z,100513.14
2019-01-11T14:05:34.629Z,100516.00
2019-01-11T14:08:04.097Z,100516.80
2019-01-11T14:10:34.616Z,100516.45
2019-01-11T14:13:04.342Z,100514.44
2019-01-11T14:15:34.043Z,100517.48
2019-01-11T14:18:03.498Z,100511.64
2019-01-11T14:20:35.680Z,100507.42
2019-01-11T14:23:05.427Z,100507.80
2019-01-11T14:25:34.783Z,100512.05
2019-01-11T14:28:04.314Z,100509.98
2019-01-11T14:30:33.949Z,100500.60
2019-01-11T14:33:03.515Z,100509.95
2019-01-11T14:35:32.884Z,100507.97
2019-01-11T14:38:04.341Z,100499.06
2019-01-11T14:40:33.738Z,100501.81
2019-01-11T14:43:04.650Z,100499.02
2019-01-11T14:45:34.167Z,100503.28
2019-01-11T14:48:03.661Z,100496.75
2019-01-11T14:50:33.101Z,100497.69
2019-01-11T14:53:02.602Z,100506.70
2019-01-11T14:55:31.981Z,100500.70
2019-01-11T14:58:01.693Z,100498.37
2019-01-11T15:00:31.078Z,100503.31
2019-01-11T15:03:00.495Z,100504.84
2019-01-11T15:05:29.833Z,100501.81
2019-01-11T15:08:18.828Z,100502.43
2019-01-11T15:10:48.203Z,100502.30
2019-01-11T15:13:17.916Z,100497.53
2019-01-11T15:15:47.307Z,100503.39
2019-01-11T15:18:16.681Z,100496.38
2019-01-11T15:20:46.064Z,100505.45
2019-01-11T15:23:15.738Z,100502.28
2019-01-11T15:25:45.478Z,100502.08
2019-01-11T15:28:14.863Z,100504.63
2019-01-11T15:30:45.528Z,100509.62
2019-01-11T15:33:14.919Z,100509.94
2019-01-11T15:35:44.623Z,100511.87
2019-01-11T15:38:14.182Z,100510.11
2019-01-11T15:40:43.900Z,100514.56
2019-01-11T15:43:13.498Z,100514.05
2019-01-11T15:45:43.140Z,100513.31
2019-01-11T15:48:16.064Z,100507.70
2019-01-11T15:50:52.176Z,100510.72
2019-01-11T15:53:21.953Z,100507.92
2019-01-11T15:55:51.629Z,100515.89
2019-01-11T15:58:21.224Z,100513.59
2019-01-11T16:00:50.614Z,100516.89
2019-01-11T16:03:21.600Z,100517.00
2019-01-11T16:06:12.167Z,100516.69
2019-01-11T16:08:46.153Z,100516.88
2019-01-11T16:11:28.779Z,100508.37
2019-01-11T16:14:19.331Z,100510.66
2019-01-11T16:16:49.625Z,100507.09
2019-01-11T16:19:18.990Z,100506.86
2019-01-11T16:21:48.374Z,100508.77
2019-01-11T16:24:17.745Z,100516.28
2019-01-11T16:26:47.126Z,100522.05
2019-01-11T16:29:16.498Z,100514.45
2019-01-11T16:31:46.122Z,100520.52
2019-01-11T16:34:15.505Z,100520.09
2019-01-11T16:36:44.889Z,100523.80
2019-01-11T16:39:14.540Z,100521.77
2019-01-11T16:41:44.168Z,100521.64
2019-01-11T16:44:13.810Z,100528.58
2019-01-11T16:46:43.184Z,100527.98
2019-01-11T16:49:12.553Z,100531.02
2019-01-11T16:51:42.272Z,100534.73
2019-01-11T16:54:11.636Z,100536.05
2019-01-11T16:56:41.076Z,100536.64
2019-01-11T16:59:10.459Z,100537.03
2019-01-11T17:01:39.910Z,100538.85
2019-01-11T17:04:09.604Z,100539.56
2019-01-11T17:06:39.052Z,100541.27
2019-01-11T17:09:09.638Z,100544.28
2019-01-11T17:11:39.024Z,100544.12
2019-01-11T17:14:08.463Z,100538.06
2019-01-11T17:16:37.850Z,100539.33
2019-01-11T17:19:07.229Z,100546.41
2019-01-11T17:21:36.610Z,100547.41
2019-01-11T17:24:06.670Z,100550.09
2019-01-11T17:26:36.046Z,100553.99
2019-01-11T17:29:05.499Z,100549.80
2019-01-11T17:31:34.870Z,100549.52
2019-01-11T17:34:04.599Z,100549.78
2019-01-11T17:36:35.291Z,100549.17
2019-01-11T17:39:07.705Z,100553.47
2019-01-11T17:41:37.376Z,100553.69
2019-01-11T17:44:06.908Z,100557.33
2019-01-11T17:46:36.543Z,100558.75
2019-01-11T17:49:06.020Z,100565.23
2019-01-11T17:51:35.395Z,100564.79
2019-01-11T17:54:05.330Z,100560.91
2019-01-11T17:56:34.967Z,100559.88
2019-01-11T17:59:04.678Z,100564.69
2019-01-11T18:01:34.058Z,100565.33
2019-01-11T18:04:03.488Z,100562.98
2019-01-11T18:06:32.849Z,100574.77
2019-01-11T18:09:02.238Z,100569.47
2019-01-11T18:11:31.608Z,100566.35
2019-01-11T18:14:01.264Z,100568.98
2019-01-11T18:16:30.893Z,100569.27
2019-01-11T18:19:00.267Z,100571.42
2019-01-11T18:21:29.683Z,100570.83
2019-01-11T18:23:59.407Z,100564.56
2019-01-11T18:26:28.785Z,100569.75
2019-01-11T18:28:58.173Z,100574.99
2019-01-11T18:31:27.545Z,100572.70
2019-01-11T18:33:56.984Z,100570.56
2019-01-11T18:36:26.360Z,100571.27
2019-01-11T18:38:55.997Z,100565.94
2019-01-11T18:41:25.379Z,100567.98
2019-01-11T18:43:54.769Z,100573.41
2019-01-11T18:46:24.155Z,100572.72
2019-01-11T18:48:53.527Z,100576.41
2019-01-11T18:51:22.904Z,100574.20
2019-01-11T18:53:52.281Z,100571.91
2019-01-11T18:56:21.655Z,100579.34
2019-01-11T18:58:52.428Z,100579.08
2019-01-11T19:01:21.802Z,100585.11
2019-01-11T19:03:51.197Z,100583.64
2019-01-11T19:06:20.595Z,100584.48
2019-01-11T19:08:49.982Z,100589.64
2019-01-11T19:11:19.356Z,100595.53
2019-01-11T19:13:48.747Z,100594.27
2019-01-11T19:16:18.378Z,100600.91
2019-01-11T19:18:47.759Z,100600.13
2019-01-11T19:21:17.379Z,100606.20
2019-01-11T19:23:46.748Z,100603.22
2019-01-11T19:26:16.136Z,100609.83
2019-01-11T19:28:46.644Z,100601.50
2019-01-11T19:31:16.021Z,100608.50
2019-01-11T19:33:45.412Z,100614.77
2019-01-11T19:36:14.798Z,100604.28
2019-01-11T19:38:44.171Z,100611.77
2019-01-11T19:41:13.883Z,100610.84
2019-01-11T19:43:43.307Z,100613.84
2019-01-11T19:46:12.686Z,100610.52
2019-01-11T19:48:42.070Z,100607.69
2019-01-11T19:51:11.441Z,100606.51
2019-01-11T19:53:40.829Z,100613.16
2019-01-11T19:56:10.292Z,100617.19
2019-01-11T19:58:39.670Z,100616.50
2019-01-11T20:01:09.209Z,100620.34
2019-01-11T20:03:38.564Z,100622.00
2019-01-11T20:06:08.462Z,100618.86
2019-01-11T20:08:37.928Z,100611.47
2019-01-11T20:11:07.347Z,100608.48
2019-01-11T20:13:36.709Z,100612.05
2019-01-11T20:16:06.241Z,100607.51
2019-01-11T20:18:35.621Z,100610.52
2019-01-11T20:21:05.172Z,100603.36
2019-01-11T20:23:36.954Z,100602.81
2019-01-11T20:26:06.666Z,100609.09
2019-01-11T20:28:36.041Z,100610.63
2019-01-11T20:31:05.533Z,100613.83
2019-01-11T20:33:35.128Z,100615.78
2019-01-11T20:36:05.153Z,100611.12
2019-01-11T20:38:34.522Z,100610.05
2019-01-11T20:41:03.927Z,100609.36
2019-01-11T20:43:33.302Z,100608.17
2019-01-11T20:46:03.255Z,100605.59
2019-01-11T20:48:32.855Z,100609.42
2019-01-11T20:51:02.236Z,100603.36
2019-01-11T20:53:31.675Z,100608.50
2019-01-11T20:56:01.054Z,100614.09
2019-01-11T20:58:30.447Z,100613.94
2019-01-11T21:00:59.892Z,100618.69
2019-01-11T21:03:30.037Z,100614.84
2019-01-11T21:05:59.401Z,100615.05
2019-01-11T21:08:28.774Z,100617.27
2019-01-11T21:10:58.159Z,100621.85
2019-01-11T21:13:27.527Z,100624.91
2019-01-11T21:15:56.904Z,100624.54
2019-01-11T21:18:26.342Z,100624.06
2019-01-11T21:20:55.710Z,100622.06
2019-01-11T21:23:25.105Z,100621.56
2019-01-11T21:25:54.457Z,100623.91
2019-01-11T21:28:23.829Z,100627.88
2019-01-11T21:30:57.274Z,100623.55
2019-01-11T21:33:24.562Z,100623.84
2019-01-11T21:35:53.935Z,100628.27
2019-01-11T21:38:23.328Z,100624.40
2019-01-11T21:40:52.696Z,100626.95
2019-01-11T21:43:22.067Z,100636.31
2019-01-11T21:45:51.440Z,100631.44
2019-01-11T21:48:21.774Z,100628.41
2019-01-11T21:50:51.225Z,100631.98
2019-01-11T21:53:20.947Z,100634.57
2019-01-11T21:55:50.326Z,100632.05
2019-01-11T21:58:19.712Z,100632.05
2019-01-11T22:00:49.245Z,100633.58
2019-01-11T22:03:18.621Z,100628.77
2019-01-11T22:05:47.996Z,100635.98
2019-01-11T22:08:17.808Z,100632.70
2019-01-11T22:10:47.181Z,100634.17
2019-01-11T22:13:16.636Z,100632.59
2019-01-11T22:15:46.021Z,100638.99
2019-01-11T22:18:15.394Z,100638.34
2019-01-11T22:20:44.763Z,100637.97
2019-01-11T22:23:14.203Z,100639.53
2019-01-11T22:25:44.721Z,100632.98
2019-01-11T22:28:14.127Z,100637.57
2019-01-11T22:30:43.735Z,100637.57
2019-01-11T22:33:13.115Z,100637.89
2019-01-11T22:35:42.540Z,100632.35
2019-01-11T22:38:11.911Z,100631.06
2019-01-11T22:40:41.286Z,100635.59
2019-01-11T22:43:10.662Z,100635.81
2019-01-11T22:45:40.027Z,100635.84
2019-01-11T22:48:09.415Z,100631.09
2019-01-11T22:50:38.782Z,100629.72
2019-01-11T22:53:08.166Z,100626.70
2019-01-11T22:55:49.515Z,100620.36
2019-01-11T22:58:19.136Z,100622.28
2019-01-11T23:00:55.751Z,100618.34
2019-01-11T23:03:32.897Z,100617.39
2019-01-11T23:06:12.473Z,100620.00
2019-01-11T23:08:43.071Z,100612.58
2019-01-11T23:11:25.924Z,100614.23
2019-01-11T23:13:55.302Z,100620.08
2019-01-11T23:16:29.904Z,100615.95
2019-01-11T23:18:59.625Z,100610.84
2019-01-11T23:21:28.989Z,100619.72
2019-01-11T23:23:58.364Z,100613.22
2019-01-11T23:26:27.733Z,100619.30
2019-01-11T23:28:57.106Z,100615.80
2019-01-11T23:31:26.490Z,100620.66
2019-01-11T23:33:55.874Z,100614.41
2019-01-11T23:36:25.239Z,100612.94
2019-01-11T23:38:54.949Z,100619.28
2019-01-11T23:41:24.320Z,100623.45
2019-01-11T23:43:53.699Z,100632.55
2019-01-11T23:46:23.329Z,100633.56
2019-01-11T23:48:52.963Z,100626.09
2019-01-11T23:51:22.343Z,100633.20
2019-01-11T23:53:51.712Z,100630.23
2019-01-11T23:56:21.086Z,100633.79
2019-01-11T23:58:50.459Z,100640.34
